Time;durP1;ratioP1;P1;durP2;ratioP2;P2;SDS_P1;SDS_P2;PMS_P1;PMS_P2;Temp;Humidity;BMP_temperature;BMP_pressure;BME280_temperature;BME280_humidity;BME280_pressure;Samples;Min_cycle;Max_cycle;Signal;HPM_P1;HPM_P2
2022/12/26 00:00:06;;;;;;;7.03;3.60;;;;;;;10.08;100.00;100228.16;685513;28;1508;-67
2022/12/26 00:00:27;;;;;;;6.75;3.70;;;;;;;10.05;100.00;100230.75;688556;28;698;-67
2022/12/26 00:00:47;;;;;;;5.77;3.67;;;;;;;10.05;100.00;100225.53;689219;28;4291;-66
2022/12/26 00:01:10;;;;;;;5.95;3.50;;;;;;;10.04;100.00;100226.44;688128;28;1214;-66
2022/12/26 00:01:32;;;;;;;5.43;3.47;;;;;;;10.07;100.00;100220.34;687669;28;1314;-66
2022/12/26 00:01:54;;;;;;;5.60;3.33;;;;;;;10.10;100.00;100215.06;688441;28;1205;-67
2022/12/26 00:02:14;;;;;;;5.82;3.28;;;;;;;10.11;100.00;100220.28;688060;28;965;-67
2022/12/26 00:02:35;;;;;;;6.40;3.50;;;;;;;10.09;100.00;100221.16;687015;28;946;-67
2022/12/26 00:02:55;;;;;;;6.43;3.50;;;;;;;10.06;100.00;100224.66;688503;28;1081;-67
2022/12/26 00:03:15;;;;;;;6.63;3.53;;;;;;;10.04;100.00;100224.69;687462;28;1431;-66
2022/12/26 00:03:36;;;;;;;6.43;3.60;;;;;;;10.04;100.00;100214.25;687356;28;770;-66
2022/12/26 00:03:57;;;;;;;6.38;3.40;;;;;;;10.04;100.00;100224.69;686859;28;4603;-67
2022/12/26 00:04:18;;;;;;;6.43;3.30;;;;;;;10.03;100.00;100224.72;687423;28;2530;-68
2022/12/26 00:04:38;;;;;;;6.43;3.42;;;;;;;10.01;100.00;100226.44;687126;28;2113;-67
2022/12/26 00:04:58;;;;;;;7.00;3.60;;;;;;;10.00;100.00;100219.53;688559;28;1364;-68
2022/12/26 00:05:19;;;;;;;5.90;3.45;;;;;;;10.01;100.00;100226.44;689181;28;1049;-67
2022/12/26 00:05:39;;;;;;;6.10;3.13;;;;;;;9.99;100.00;100225.63;688094;28;1190;-66
2022/12/26 00:05:59;;;;;;;5.67;3.10;;;;;;;9.97;100.00;100222.13;688290;28;1017;-66
2022/12/26 00:06:23;;;;;;;5.03;3.28;;;;;;;10.13;100.00;100217.66;688746;28;813;-67
2022/12/26 00:06:43;;;;;;;5.97;3.38;;;;;;;10.12;100.00;100219.41;688659;28;4545;-67
2022/12/26 00:07:04;;;;;;;5.63;3.53;;;;;;;10.19;100.00;100218.44;688193;28;1105;-66
2022/12/26 00:07:24;;;;;;;4.80;2.90;;;;;;;10.38;100.00;100213.94;687683;28;919;-66
2022/12/26 00:07:44;;;;;;;4.85;2.80;;;;;;;10.41;100.00;100215.63;689135;28;876;-67
2022/12/26 00:08:06;;;;;;;5.83;2.90;;;;;;;10.36;100.00;100222.66;689542;28;1003;-67
2022/12/26 00:08:27;;;;;;;5.38;2.90;;;;;;;10.29;100.00;100216.59;688857;28;1379;-67
2022/12/26 00:08:48;;;;;;;5.65;3.10;;;;;;;10.25;100.00;100217.53;689791;28;1229;-66
2022/12/26 00:09:09;;;;;;;5.82;3.00;;;;;;;10.21;100.00;100216.66;689072;28;1101;-67
2022/12/26 00:09:32;;;;;;;6.00;3.10;;;;;;;10.18;100.00;100224.53;687496;28;879;-67
2022/12/26 00:09:52;;;;;;;5.63;2.95;;;;;;;10.17;100.00;100219.34;687098;28;4400;-66
2022/12/26 00:10:12;;;;;;;6.50;2.93;;;;;;;10.12;100.00;100226.34;687154;28;1977;-67
2022/12/26 00:10:33;;;;;;;6.80;3.00;;;;;;;10.11;100.00;100224.66;689142;28;916;-67
2022/12/26 00:10:53;;;;;;;6.30;3.10;;;;;;;10.08;100.00;100228.16;688611;28;867;-67
2022/12/26 00:11:14;;;;;;;6.07;3.10;;;;;;;10.05;100.00;100229.03;686309;28;1205;-67
2022/12/26 00:11:35;;;;;;;5.35;3.05;;;;;;;10.05;100.00;100221.19;685353;28;872;-67
2022/12/26 00:11:55;;;;;;;4.82;3.08;;;;;;;10.05;100.00;100225.53;686759;28;1348;-68
2022/12/26 00:12:16;;;;;;;6.32;3.20;;;;;;;10.04;100.00;100224.69;683156;28;913;-67
2022/12/26 00:12:36;;;;;;;5.87;3.07;;;;;;;10.04;100.00;100221.22;683242;28;869;-67
2022/12/26 00:12:56;;;;;;;5.47;2.83;;;;;;;10.02;100.00;100231.69;683575;28;4564;-67
2022/12/26 00:13:17;;;;;;;5.57;3.10;;;;;;;10.03;100.00;100227.31;689517;28;1400;-67
2022/12/26 00:13:41;;;;;;;5.00;2.80;;;;;;;10.04;100.00;100235.13;688808;28;1443;-67
2022/12/26 00:14:07;;;;;;;7.20;2.97;;;;;;;10.13;100.00;100228.09;687706;28;1020;-67
2022/12/26 00:14:28;;;;;;;5.90;2.53;;;;;;;10.28;100.00;100227.06;685896;28;975;-67
2022/12/26 00:14:48;;;;;;;5.20;2.83;;;;;;;10.28;100.00;100227.06;685734;28;875;-66
2022/12/26 00:15:09;;;;;;;6.33;2.87;;;;;;;10.31;100.00;100221.81;685967;28;1076;-67
2022/12/26 00:15:29;;;;;;;5.72;2.60;;;;;;;10.25;100.00;100227.97;687645;28;895;-67
2022/12/26 00:15:49;;;;;;;5.63;2.77;;;;;;;10.22;100.00;100226.25;685846;28;4326;-67
2022/12/26 00:16:14;;;;;;;6.28;2.90;;;;;;;10.20;100.00;100224.53;685163;28;1222;-67
2022/12/26 00:16:35;;;;;;;5.35;3.10;;;;;;;10.22;100.00;100223.63;687677;28;1556;-64
2022/12/26 00:16:55;;;;;;;6.60;3.13;;;;;;;10.23;100.00;100220.16;687417;28;1305;-68
2022/12/26 00:17:16;;;;;;;5.63;2.77;;;;;;;10.20;100.00;100222.81;687595;28;913;-66
2022/12/26 00:17:36;;;;;;;5.75;2.97;;;;;;;10.18;100.00;100221.09;687893;28;1063;-67
2022/12/26 00:17:56;;;;;;;6.33;3.00;;;;;;;10.16;100.00;100218.50;687181;28;1010;-67
2022/12/26 00:18:17;;;;;;;6.00;2.83;;;;;;;10.14;100.00;100222.84;687191;28;1326;-66
2022/12/26 00:18:38;;;;;;;6.38;2.90;;;;;;;10.14;100.00;100220.22;688923;28;1553;-67
2022/12/26 00:18:58;;;;;;;6.45;2.97;;;;;;;10.14;100.00;100219.38;687144;28;4861;-66
2022/12/26 00:19:19;;;;;;;5.43;2.90;;;;;;;10.13;100.00;100218.50;688888;28;777;-67
2022/12/26 00:19:39;;;;;;;4.23;2.60;;;;;;;10.10;100.00;100217.69;689855;28;968;-67
2022/12/26 00:19:59;;;;;;;4.90;2.60;;;;;;;10.09;100.00;100221.16;687937;28;1026;-67
2022/12/26 00:20:21;;;;;;;6.63;2.70;;;;;;;10.08;100.00;100219.44;689371;28;4533;-67
2022/12/26 00:20:41;;;;;;;6.93;3.05;;;;;;;10.08;100.00;100219.44;689479;28;935;-67
2022/12/26 00:21:03;;;;;;;5.97;2.92;;;;;;;10.05;100.00;100220.31;689512;28;955;-68
2022/12/26 00:21:26;;;;;;;6.10;2.83;;;;;;;10.11;100.00;100219.41;690379;28;880;-67
2022/12/26 00:21:46;;;;;;;4.97;2.83;;;;;;;10.12;100.00;100221.13;688490;28;4496;-67
2022/12/26 00:22:07;;;;;;;4.43;2.70;;;;;;;10.18;100.00;100215.84;688182;28;1209;-67
2022/12/26 00:22:27;;;;;;;4.45;2.72;;;;;;;10.28;100.00;100216.63;690577;28;941;-67
2022/12/26 00:22:48;;;;;;;4.97;2.73;;;;;;;10.27;100.00;100214.88;689244;28;785;-66
2022/12/26 00:23:08;;;;;;;4.95;2.80;;;;;;;10.23;100.00;100214.94;688420;28;1051;-66
2022/12/26 00:23:31;;;;;;;4.70;2.90;;;;;;;10.19;100.00;100217.56;689969;28;924;-67
2022/12/26 00:23:52;;;;;;;5.30;2.75;;;;;;;10.16;100.00;100215.88;688005;28;1630;-68
2022/12/26 00:24:12;;;;;;;5.50;2.90;;;;;;;10.16;100.00;100223.72;687506;28;1199;-67
2022/12/26 00:24:33;;;;;;;5.67;2.70;;;;;;;10.14;100.00;100219.38;688491;28;991;-67
2022/12/26 00:24:53;;;;;;;5.07;2.72;;;;;;;10.16;100.00;100218.50;688123;28;4370;-67
2022/12/26 00:25:14;;;;;;;5.60;2.77;;;;;;;10.18;100.00;100224.53;688371;28;1468;-67
2022/12/26 00:25:35;;;;;;;5.97;2.90;;;;;;;10.19;100.00;100223.69;689008;28;1629;-68
2022/12/26 00:26:02;;;;;;;6.20;2.85;;;;;;;10.14;100.00;100228.06;690046;28;1018;-67
2022/12/26 00:26:24;;;;;;;5.70;2.90;;;;;;;10.13;100.00;100218.50;689684;28;896;-67
2022/12/26 00:26:44;;;;;;;6.25;2.78;;;;;;;10.10;100.00;100223.75;689900;28;2081;-68
2022/12/26 00:27:05;;;;;;;5.45;2.70;;;;;;;10.11;100.00;100214.19;688601;28;1313;-67
2022/12/26 00:27:25;;;;;;;5.00;2.77;;;;;;;10.11;100.00;100217.66;686157;28;1011;-66
2022/12/26 00:27:45;;;;;;;4.97;2.87;;;;;;;10.08;100.00;100220.31;685889;28;4445;-67
2022/12/26 00:28:06;;;;;;;5.00;2.80;;;;;;;10.10;100.00;100222.91;686301;28;1253;-67
2022/12/26 00:28:27;;;;;;;6.27;2.87;;;;;;;10.09;100.00;100224.63;686740;28;917;-67
2022/12/26 00:28:48;;;;;;;5.10;2.80;;;;;;;10.07;100.00;100223.78;689513;28;1368;-67
2022/12/26 00:29:09;;;;;;;5.13;2.80;;;;;;;10.08;100.00;100229.88;687754;28;1297;-66
2022/12/26 00:29:32;;;;;;;5.25;2.78;;;;;;;10.17;100.00;100229.78;689784;28;908;-67
2022/12/26 00:29:53;;;;;;;6.32;3.08;;;;;;;10.22;100.00;100225.41;689718;28;916;-67
2022/12/26 00:30:13;;;;;;;5.53;2.80;;;;;;;10.20;100.00;100216.69;687193;28;1911;-68
2022/12/26 00:30:36;;;;;;;5.10;2.72;;;;;;;10.16;100.00;100223.72;688994;28;1009;-67
2022/12/26 00:30:57;;;;;;;5.18;2.80;;;;;;;10.14;100.00;100217.63;689518;28;4254;-68
2022/12/26 00:31:21;;;;;;;4.88;2.80;;;;;;;10.11;100.00;100219.41;689700;28;865;-66
2022/12/26 00:31:41;;;;;;;5.63;2.80;;;;;;;10.10;100.00;100226.38;686380;28;841;-67
2022/12/26 00:32:02;;;;;;;6.00;2.73;;;;;;;10.08;100.00;100215.09;685987;28;927;-67
2022/12/26 00:32:22;;;;;;;5.55;2.90;;;;;;;10.11;100.00;100217.66;686041;28;1552;-67
2022/12/26 00:32:43;;;;;;;4.68;2.67;;;;;;;10.12;100.00;100219.41;686757;28;1555;-67
2022/12/26 00:33:03;;;;;;;5.47;2.70;;;;;;;10.15;100.00;100227.19;681996;28;1262;-67
2022/12/26 00:33:24;;;;;;;6.00;2.80;;;;;;;10.17;100.00;100212.38;681562;29;849;-67
2022/12/26 00:33:45;;;;;;;5.72;2.80;;;;;;;10.16;100.00;100215.88;683595;28;4278;-68
2022/12/26 00:34:05;;;;;;;5.45;2.65;;;;;;;10.13;100.00;100213.28;684550;28;1411;-67
2022/12/26 00:34:25;;;;;;;5.87;2.90;;;;;;;10.08;100.00;100212.47;687544;28;1314;-67
2022/12/26 00:34:46;;;;;;;4.95;2.78;;;;;;;10.06;100.00;100211.63;686308;28;974;-67
2022/12/26 00:35:06;;;;;;;4.70;2.60;;;;;;;10.05;100.00;100209.88;687238;28;1335;-67
2022/12/26 00:35:27;;;;;;;5.00;2.70;;;;;;;10.02;100.00;100210.78;686904;28;833;-67
2022/12/26 00:35:47;;;;;;;5.57;2.90;;;;;;;10.00;100.00;100212.53;688044;28;1282;-66
2022/12/26 00:36:12;;;;;;;5.27;2.90;;;;;;;10.00;100.00;100206.47;688732;28;1041;-67
2022/12/26 00:36:33;;;;;;;5.18;2.80;;;;;;;9.99;100.00;100216.03;688772;28;995;-67
2022/12/26 00:36:53;;;;;;;5.75;3.00;;;;;;;9.98;100.00;100216.94;688873;28;4524;-67
2022/12/26 00:37:14;;;;;;;5.40;2.80;;;;;;;9.98;100.00;100216.03;689086;28;1497;-67
2022/12/26 00:37:34;;;;;;;4.60;2.50;;;;;;;9.97;100.00;100215.19;686872;28;884;-67
2022/12/26 00:37:55;;;;;;;4.93;2.80;;;;;;;9.97;100.00;100220.41;686892;28;1344;-67
2022/12/26 00:38:15;;;;;;;4.93;2.67;;;;;;;9.96;100.00;100221.28;687293;28;833;-67
2022/12/26 00:38:36;;;;;;;5.07;2.80;;;;;;;9.95;100.00;100216.06;686695;28;1297;-67
2022/12/26 00:38:59;;;;;;;5.85;2.85;;;;;;;9.94;100.00;100222.16;687437;28;5241;-67
2022/12/26 00:39:19;;;;;;;5.60;2.90;;;;;;;9.91;100.00;100211.75;688303;28;2022;-67
2022/12/26 00:39:40;;;;;;;5.03;2.80;;;;;;;9.92;100.00;100216.09;687148;28;4777;-67
2022/12/26 00:40:00;;;;;;;4.40;2.90;;;;;;;9.91;100.00;100217.84;686605;28;1039;-67
2022/12/26 00:40:20;;;;;;;4.50;2.70;;;;;;;9.96;100.00;100217.81;686196;28;948;-67
2022/12/26 00:40:42;;;;;;;4.50;2.65;;;;;;;10.22;100.00;100218.41;682769;28;1366;-67
2022/12/26 00:41:03;;;;;;;4.53;2.80;;;;;;;10.20;100.00;100220.19;683489;28;1142;-67
2022/12/26 00:41:24;;;;;;;5.43;2.72;;;;;;;10.16;100.00;100213.25;684829;28;857;-67
2022/12/26 00:41:44;;;;;;;4.57;2.73;;;;;;;10.14;100.00;100216.78;688527;28;888;-68
2022/12/26 00:42:04;;;;;;;5.22;2.90;;;;;;;10.12;100.00;100216.78;686915;28;1105;-67
2022/12/26 00:42:25;;;;;;;6.00;2.80;;;;;;;10.11;100.00;100214.19;688766;28;1280;-67
2022/12/26 00:42:45;;;;;;;5.43;2.77;;;;;;;10.07;100.00;100213.34;688841;28;4594;-67
2022/12/26 00:43:05;;;;;;;6.90;2.80;;;;;;;10.06;100.00;100216.84;685545;28;1369;-67
2022/12/26 00:43:26;;;;;;;4.53;2.63;;;;;;;10.04;100.00;100213.38;686198;28;836;-67
2022/12/26 00:43:47;;;;;;;5.88;2.95;;;;;;;10.05;100.00;100221.19;686325;28;971;-67
2022/12/26 00:44:07;;;;;;;5.55;2.95;;;;;;;10.12;100.00;100222.00;686194;28;1246;-66
2022/12/26 00:44:28;;;;;;;5.20;2.73;;;;;;;10.10;100.00;100213.31;686161;28;952;-67
2022/12/26 00:44:48;;;;;;;5.90;2.83;;;;;;;10.09;100.00;100216.78;689277;28;820;-68
2022/12/26 00:45:09;;;;;;;5.07;2.80;;;;;;;10.08;100.00;100225.53;688734;28;1039;-67
2022/12/26 00:45:29;;;;;;;5.90;3.00;;;;;;;10.07;100.00;100218.56;689425;28;856;-67
2022/12/26 00:45:50;;;;;;;6.10;2.83;;;;;;;10.09;100.00;100214.19;687718;28;4316;-67
2022/12/26 00:46:10;;;;;;;5.40;2.70;;;;;;;10.20;100.00;100219.31;685915;28;1004;-67
2022/12/26 00:46:31;;;;;;;5.43;2.70;;;;;;;10.19;100.00;100218.44;686983;28;848;-67
2022/12/26 00:46:51;;;;;;;6.15;2.70;;;;;;;10.17;100.00;100214.97;687191;28;777;-67
2022/12/26 00:47:11;;;;;;;5.97;2.60;;;;;;;10.13;100.00;100220.25;689246;28;1273;-67
2022/12/26 00:47:32;;;;;;;5.55;2.70;;;;;;;10.11;100.00;100217.66;689279;28;1408;-66
2022/12/26 00:47:52;;;;;;;5.97;2.80;;;;;;;10.10;100.00;100212.47;688565;28;1324;-67
2022/12/26 00:48:12;;;;;;;5.93;2.70;;;;;;;10.07;100.00;100208.13;689888;28;993;-67
2022/12/26 00:48:33;;;;;;;5.50;2.78;;;;;;;10.04;100.00;100219.47;688692;28;955;-66
2022/12/26 00:48:53;;;;;;;4.30;2.60;;;;;;;10.03;100.00;100214.25;688430;28;4290;-67
2022/12/26 00:49:14;;;;;;;4.45;2.50;;;;;;;10.03;100.00;100220.34;688912;28;1139;-67
2022/12/26 00:49:34;;;;;;;5.13;2.60;;;;;;;10.04;100.00;100221.22;689401;28;1440;-66
2022/12/26 00:49:54;;;;;;;6.07;2.70;;;;;;;10.02;100.00;100218.63;689149;28;911;-67
2022/12/26 00:50:15;;;;;;;6.17;2.73;;;;;;;10.04;100.00;100223.84;689956;28;1980;-67
2022/12/26 00:50:35;;;;;;;5.77;2.70;;;;;;;10.02;100.00;100216.03;688904;28;789;-68
2022/12/26 00:50:55;;;;;;;5.70;3.00;;;;;;;10.02;100.00;100221.25;684824;28;1575;-67
2022/12/26 00:51:16;;;;;;;7.40;3.10;;;;;;;10.00;100.00;100220.38;686466;28;904;-66
2022/12/26 00:51:36;;;;;;;5.22;2.70;;;;;;;10.00;100.00;100222.97;686602;28;911;-67
2022/12/26 00:51:57;;;;;;;4.67;2.70;;;;;;;9.99;100.00;100218.63;687038;28;5252;-67
2022/12/26 00:52:17;;;;;;;4.65;2.70;;;;;;;9.99;100.00;100221.25;688645;28;907;-66
2022/12/26 00:52:37;;;;;;;5.53;2.90;;;;;;;9.98;100.00;100222.16;687619;28;1502;-67
2022/12/26 00:52:58;;;;;;;5.47;2.90;;;;;;;10.15;100.00;100216.75;689998;28;1029;-66
2022/12/26 00:53:18;;;;;;;6.33;2.97;;;;;;;10.26;100.00;100226.22;690155;28;818;-66
2022/12/26 00:53:39;;;;;;;5.43;2.80;;;;;;;10.26;100.00;100218.38;688866;28;837;-67
2022/12/26 00:53:59;;;;;;;5.60;2.75;;;;;;;10.26;100.00;100226.22;688868;28;1362;-66
2022/12/26 00:54:20;;;;;;;5.10;2.65;;;;;;;10.33;100.00;100220.06;684337;28;1529;-67
2022/12/26 00:54:40;;;;;;;5.23;2.53;;;;;;;10.42;100.00;100229.56;688196;28;4305;-67
2022/12/26 00:55:00;;;;;;;5.30;2.60;;;;;;;10.44;100.00;100218.22;689718;28;1002;-67
2022/12/26 00:55:21;;;;;;;5.82;2.70;;;;;;;10.41;100.00;100226.06;689700;28;888;-67
2022/12/26 00:55:41;;;;;;;5.00;2.50;;;;;;;10.38;100.00;100223.50;690214;28;789;-66
2022/12/26 00:56:02;;;;;;;4.72;2.60;;;;;;;10.41;100.00;100223.47;689595;28;1437;-66
2022/12/26 00:56:22;;;;;;;6.70;2.80;;;;;;;10.38;100.00;100227.00;690007;28;950;-67
2022/12/26 00:56:44;;;;;;;6.32;2.63;;;;;;;10.48;100.00;100222.53;689751;28;906;-67
2022/12/26 00:57:05;;;;;;;5.82;2.60;;;;;;;10.51;100.00;100232.09;688682;28;987;-67
2022/12/26 00:57:27;;;;;;;5.88;2.53;;;;;;;10.48;100.00;100225.16;689938;28;931;-66
2022/12/26 00:57:47;;;;;;;6.13;2.70;;;;;;;10.45;100.00;100221.69;688220;28;5002;-67
2022/12/26 00:58:08;;;;;;;5.37;2.80;;;;;;;10.44;100.00;100231.28;689715;28;1460;-67
2022/12/26 00:58:28;;;;;;;5.13;2.80;;;;;;;10.52;100.00;100221.63;689317;28;987;-67
2022/12/26 00:58:48;;;;;;;4.90;2.47;;;;;;;10.52;100.00;100233.78;689030;28;900;-67
2022/12/26 00:59:09;;;;;;;7.33;2.53;;;;;;;10.47;100.00;100226.03;689100;28;1397;-66
2022/12/26 00:59:29;;;;;;;6.80;2.90;;;;;;;10.45;100.00;100232.16;686031;28;1455;-67
2022/12/26 00:59:49;;;;;;;5.70;2.80;;;;;;;10.43;100.00;100226.09;686417;28;1469;-66
2022/12/26 01:00:11;;;;;;;7.05;2.55;;;;;;;10.37;100.00;100232.22;686716;28;1028;-66
2022/12/26 01:00:31;;;;;;;6.28;2.70;;;;;;;10.33;100.00;100238.34;686775;28;1024;-67
2022/12/26 01:00:52;;;;;;;5.43;2.70;;;;;;;10.30;100.00;100235.75;686005;28;4321;-67
2022/12/26 01:01:16;;;;;;;4.38;2.50;;;;;;;10.27;100.00;100241.00;685832;28;1025;-66
2022/12/26 01:01:36;;;;;;;5.40;2.63;;;;;;;10.29;100.00;100245.34;688903;28;1187;-67
2022/12/26 01:01:56;;;;;;;5.20;2.53;;;;;;;10.28;100.00;100237.53;690968;28;1058;-67
2022/12/26 01:02:56;;;;;;;8.02;2.95;;;;;;;10.25;100.00;100243.63;688729;28;997;-67
2022/12/26 01:03:17;;;;;;;7.10;2.73;;;;;;;10.24;100.00;100244.50;688370;28;1492;-67
2022/12/26 01:03:41;;;;;;;6.43;2.70;;;;;;;10.21;100.00;100247.16;688904;28;4635;-67
2022/12/26 01:04:03;;;;;;;6.60;2.70;;;;;;;10.22;100.00;100244.53;689645;28;944;-66
2022/12/26 01:04:23;;;;;;;4.82;2.50;;;;;;;10.26;100.00;100242.78;689284;28;867;-66
2022/12/26 01:04:44;;;;;;;5.13;2.67;;;;;;;10.27;100.00;100241.00;688957;28;862;-66
2022/12/26 01:05:06;;;;;;;5.20;2.70;;;;;;;10.26;100.00;100244.50;688291;28;1351;-66
2022/12/26 01:05:28;;;;;;;5.60;2.88;;;;;;;10.26;100.00;100244.50;691274;28;972;-67
2022/12/26 01:05:50;;;;;;;6.20;2.80;;;;;;;10.23;100.00;100241.06;691144;28;840;-66
2022/12/26 01:06:11;;;;;;;6.20;3.05;;;;;;;10.21;100.00;100242.78;691611;28;1079;-67
2022/12/26 01:06:31;;;;;;;6.32;2.88;;;;;;;10.19;100.00;100241.97;691621;28;873;-67
2022/12/26 01:06:51;;;;;;;5.73;2.80;;;;;;;10.22;100.00;100243.69;689992;28;4472;-66
2022/12/26 01:07:12;;;;;;;6.40;2.93;;;;;;;10.22;100.00;100241.06;690010;28;1035;-67
2022/12/26 01:07:34;;;;;;;4.57;2.90;;;;;;;10.22;100.00;100241.91;689194;28;798;-67
2022/12/26 01:07:54;;;;;;;5.20;2.80;;;;;;;10.30;100.00;100249.69;688258;28;936;-67
2022/12/26 01:08:16;;;;;;;5.50;2.70;;;;;;;10.48;100.00;100248.66;688661;28;1221;-65
2022/12/26 01:08:37;;;;;;;5.63;2.75;;;;;;;10.64;100.00;100241.50;688974;28;1034;-66
2022/12/26 01:08:58;;;;;;;6.57;2.93;;;;;;;10.63;100.00;100244.13;689084;28;1133;-67
2022/12/26 01:09:18;;;;;;;5.82;2.65;;;;;;;10.63;100.00;100244.13;689135;28;943;-66
2022/12/26 01:09:39;;;;;;;5.63;2.80;;;;;;;10.52;100.00;100239.03;687346;28;4319;-66
2022/12/26 01:09:59;;;;;;;5.53;2.80;;;;;;;10.50;100.00;100246.03;689244;28;1331;-67
2022/12/26 01:10:20;;;;;;;6.50;2.90;;;;;;;10.47;100.00;100244.31;688964;28;1907;-68
2022/12/26 01:10:44;;;;;;;5.77;2.80;;;;;;;10.43;100.00;100247.00;687670;28;2216;-66
2022/12/26 01:11:07;;;;;;;6.32;2.83;;;;;;;10.43;100.00;100245.22;687648;28;1022;-67
2022/12/26 01:11:39;;;;;;;5.43;3.00;;;;;;;10.49;100.00;100241.69;688380;28;1433;-68
2022/12/26 01:12:00;;;;;;;6.53;2.90;;;;;;;10.47;100.00;100244.31;688327;28;1079;-67
2022/12/26 01:12:20;;;;;;;5.38;2.80;;;;;;;10.53;100.00;100244.22;688612;28;805;-66
2022/12/26 01:12:41;;;;;;;5.53;2.90;;;;;;;10.52;100.00;100250.38;687930;28;4616;-66
2022/12/26 01:13:01;;;;;;;4.90;2.70;;;;;;;10.52;100.00;100249.47;688976;28;1343;-67
2022/12/26 01:13:22;;;;;;;5.67;2.80;;;;;;;10.55;100.00;100239.88;690534;28;817;-67
2022/12/26 01:13:42;;;;;;;6.13;2.78;;;;;;;10.70;100.00;100241.44;689088;28;948;-66
2022/12/26 01:14:03;;;;;;;4.73;2.50;;;;;;;10.68;100.00;100244.97;689355;28;948;-66
2022/12/26 01:14:23;;;;;;;4.93;2.50;;;;;;;10.65;100.00;100251.09;689397;28;1169;-67
2022/12/26 01:14:44;;;;;;;5.60;2.97;;;;;;;10.76;100.00;100248.34;688848;28;1302;-66
2022/12/26 01:15:06;;;;;;;7.75;3.13;;;;;;;10.74;100.00;100242.25;688486;28;1040;-67
2022/12/26 01:15:26;;;;;;;6.95;3.10;;;;;;;10.73;100.00;100246.63;688033;28;1220;-66
2022/12/26 01:15:49;;;;;;;6.50;3.03;;;;;;;10.76;100.00;100245.72;685147;28;4356;-67
2022/12/26 01:16:09;;;;;;;5.47;2.53;;;;;;;10.75;100.00;100244.00;685902;28;1048;-67
2022/12/26 01:16:30;;;;;;;6.25;2.65;;;;;;;10.85;100.00;100244.75;689590;28;1285;-66
2022/12/26 01:16:50;;;;;;;7.03;2.87;;;;;;;10.91;100.00;100239.44;688562;28;897;-67
2022/12/26 01:17:10;;;;;;;6.97;3.00;;;;;;;10.91;100.00;100249.91;688648;28;1071;-66
2022/12/26 01:17:31;;;;;;;6.28;2.88;;;;;;;10.85;100.00;100250.81;686965;28;1460;-66
2022/12/26 01:17:51;;;;;;;6.28;2.72;;;;;;;10.81;100.00;100248.28;689029;28;1007;-67
2022/12/26 01:18:12;;;;;;;5.77;2.70;;;;;;;10.76;100.00;100244.84;687562;28;984;-66
2022/12/26 01:18:33;;;;;;;4.70;2.87;;;;;;;10.67;100.00;100238.00;687636;28;1308;-67
2022/12/26 01:18:53;;;;;;;5.85;2.70;;;;;;;10.77;100.00;100242.22;685620;28;4502;-66
2022/12/26 01:19:13;;;;;;;5.20;2.73;;;;;;;10.84;100.00;100248.22;686202;28;1224;-67
2022/12/26 01:19:34;;;;;;;5.33;2.63;;;;;;;10.80;100.00;100246.53;686849;28;1456;-67
2022/12/26 01:19:55;;;;;;;7.13;2.97;;;;;;;10.75;100.00;100249.22;687311;28;857;-67
2022/12/26 01:20:15;;;;;;;6.35;3.08;;;;;;;10.70;100.00;100254.50;687715;28;1019;-67
2022/12/26 01:20:36;;;;;;;5.80;2.97;;;;;;;10.70;100.00;100251.00;689248;28;1423;-66
2022/12/26 01:21:09;;;;;;;5.63;2.80;;;;;;;10.70;100.00;100254.50;687624;28;912;-66
2022/12/26 01:21:30;;;;;;;5.95;2.63;;;;;;;10.67;100.00;100253.66;689539;28;888;-67
2022/12/26 01:21:50;;;;;;;5.75;2.97;;;;;;;10.65;100.00;100256.31;688351;28;4362;-67
2022/12/26 01:22:10;;;;;;;6.00;2.80;;;;;;;10.63;100.00;100260.66;689414;28;1719;-65
2022/12/26 01:22:31;;;;;;;5.97;2.75;;;;;;;10.79;100.00;100261.38;689506;28;1287;-68
2022/12/26 01:22:52;;;;;;;6.10;2.60;;;;;;;10.79;100.00;100263.97;689403;28;903;-66
2022/12/26 01:23:12;;;;;;;5.97;2.75;;;;;;;10.72;100.00;100259.72;688219;28;1185;-68
2022/12/26 01:23:33;;;;;;;6.45;3.13;;;;;;;10.71;100.00;100263.22;689379;28;889;-64
2022/12/26 01:23:54;;;;;;;6.07;3.13;;;;;;;10.71;100.00;100266.69;690152;28;796;-66
2022/12/26 01:24:14;;;;;;;5.78;3.08;;;;;;;10.73;100.00;100270.16;689223;28;1555;-65
2022/12/26 01:24:34;;;;;;;6.20;2.80;;;;;;;10.76;100.00;100265.75;690395;28;892;-66
2022/12/26 01:24:56;;;;;;;5.07;2.60;;;;;;;10.72;100.00;100273.66;689841;28;4276;-66
2022/12/26 01:25:16;;;;;;;5.32;2.58;;;;;;;10.74;100.00;100271.00;687154;28;893;-66
2022/12/26 01:25:38;;;;;;;6.70;2.97;;;;;;;10.79;100.00;100266.59;689921;28;917;-66
2022/12/26 01:25:59;;;;;;;5.85;2.78;;;;;;;10.81;100.00;100267.44;687884;28;1211;-64
2022/12/26 01:26:19;;;;;;;6.27;2.97;;;;;;;10.84;100.00;100270.03;687857;28;1023;-66
2022/12/26 01:26:40;;;;;;;7.20;2.83;;;;;;;10.85;100.00;100270.88;690478;28;844;-66
2022/12/26 01:27:00;;;;;;;6.03;2.60;;;;;;;10.83;100.00;100268.28;688819;28;1319;-65
2022/12/26 01:27:22;;;;;;;5.77;2.70;;;;;;;10.87;100.00;100263.91;689191;28;1582;-67
2022/12/26 01:27:43;;;;;;;5.70;2.70;;;;;;;10.89;100.00;100264.75;688724;28;4489;-66
2022/12/26 01:28:03;;;;;;;5.93;2.50;;;;;;;10.93;100.00;100263.81;689510;28;963;-67
2022/12/26 01:28:24;;;;;;;5.53;2.77;;;;;;;11.00;100.00;100268.06;689210;28;809;-65
2022/12/26 01:28:44;;;;;;;5.85;2.63;;;;;;;11.00;100.00;100264.59;689363;28;939;-66
2022/12/26 01:29:04;;;;;;;5.77;2.57;;;;;;;10.94;100.00;100260.31;688697;28;1238;-66
2022/12/26 01:29:25;;;;;;;5.80;2.60;;;;;;;10.99;100.00;100261.09;690043;28;856;-69
2022/12/26 01:29:45;;;;;;;5.53;2.50;;;;;;;11.06;100.00;100262.78;688714;28;782;-66
2022/12/26 01:30:06;;;;;;;5.65;2.60;;;;;;;11.08;100.00;100258.38;685238;28;996;-66
2022/12/26 01:30:27;;;;;;;6.50;3.00;;;;;;;11.04;100.00;100269.75;686812;28;1973;-66
2022/12/26 01:30:47;;;;;;;5.33;2.80;;;;;;;10.94;100.00;100272.50;687226;28;4361;-65
2022/12/26 01:31:07;;;;;;;6.47;2.60;;;;;;;10.93;100.00;100269.03;688520;28;1113;-66
2022/12/26 01:31:28;;;;;;;7.07;2.73;;;;;;;10.92;100.00;100266.44;689357;28;864;-65
2022/12/26 01:31:48;;;;;;;6.97;2.80;;;;;;;10.92;100.00;100266.44;689005;28;909;-65
2022/12/26 01:32:08;;;;;;;4.85;2.70;;;;;;;10.94;100.00;100275.13;688112;28;1277;-66
2022/12/26 01:32:29;;;;;;;6.13;2.80;;;;;;;10.83;100.00;100270.91;689225;28;1188;-66
2022/12/26 01:32:49;;;;;;;7.10;2.90;;;;;;;10.85;100.00;100269.13;689374;28;790;-66
2022/12/26 01:33:10;;;;;;;5.93;2.77;;;;;;;10.89;100.00;100267.34;689443;28;985;-65
2022/12/26 01:33:31;;;;;;;4.87;2.60;;;;;;;10.85;100.00;100266.50;688952;28;812;-66
2022/12/26 01:33:51;;;;;;;5.45;2.63;;;;;;;10.80;100.00;100272.69;689412;28;4590;-67
2022/12/26 01:34:11;;;;;;;6.63;2.83;;;;;;;10.75;100.00;100272.75;687232;28;1199;-66
2022/12/26 01:34:32;;;;;;;6.20;2.70;;;;;;;10.73;100.00;100267.53;688478;28;944;-66
2022/12/26 01:34:54;;;;;;;6.00;2.78;;;;;;;10.69;100.00;100268.47;688130;28;1504;-65
2022/12/26 01:35:14;;;;;;;6.65;2.72;;;;;;;10.63;100.00;100260.66;688779;28;1107;-66
2022/12/26 01:35:34;;;;;;;4.43;2.70;;;;;;;10.66;100.00;100268.50;688159;28;912;-66
2022/12/26 01:35:56;;;;;;;4.63;2.58;;;;;;;10.73;100.00;100264.94;688504;28;1183;-65
2022/12/26 01:36:17;;;;;;;4.95;2.85;;;;;;;10.71;100.00;100268.44;691186;28;1108;-66
2022/12/26 01:36:37;;;;;;;5.93;2.70;;;;;;;10.71;100.00;100266.69;690676;28;4373;-67
2022/12/26 01:36:58;;;;;;;6.00;2.75;;;;;;;10.77;100.00;100276.19;691894;28;1156;-65
2022/12/26 01:37:18;;;;;;;6.10;2.80;;;;;;;10.86;100.00;100265.63;692139;28;824;-65
2022/12/26 01:37:38;;;;;;;6.57;2.80;;;;;;;10.95;100.00;100269.03;691285;28;1193;-65
2022/12/26 01:37:59;;;;;;;5.50;2.90;;;;;;;10.89;100.00;100273.44;691246;28;1446;-65
2022/12/26 01:38:20;;;;;;;5.45;2.70;;;;;;;10.84;100.00;100274.38;689162;28;940;-66
2022/12/26 01:38:40;;;;;;;5.18;2.70;;;;;;;10.76;100.00;100271.88;688410;28;1016;-66
2022/12/26 01:39:01;;;;;;;4.50;2.53;;;;;;;10.77;100.00;100277.97;688453;28;5430;-65
2022/12/26 01:39:21;;;;;;;4.70;2.43;;;;;;;10.78;100.00;100277.09;689244;28;1296;-66